LOT34E EPBY-LOWI
Flight info
| Callsign | LOT34E |
|---|---|
| Flight time | N/A |
| Altitude | 18000 |
| Route | LUXUD Z96 DEKUT/N0455F360 P861 LATAG DCT RASAN DCT ASTEL DCT RUDAP P31 DOSEL/N0455F370 M736 TULSI TULSI3A |
| Aircraft | B38M/M-SDE1FGHILORVWXY/HB1 |
Departure
| Time | 2026-05-08 17:36 |
|---|---|
| Airport | Ignacy Jan Paderewski Bydgoszcz Airport (EPBY) |
Arrival
| Time | N/A |
|---|---|
| Airport | Innsbruck Airport (LOWI) |
| Time | Latitude | Longitude | Altitude | Speed | Heading |
|---|---|---|---|---|---|
| 2026-05-08 17:00 | 53.09460 | 17.99696 | 226 ft | 0 kts | 172° |
| 2026-05-08 17:26 | 53.09460 | 17.99695 | 226 ft | 0 kts | 172° |
| 2026-05-08 17:27 | 53.09460 | 17.99696 | 226 ft | 0 kts | 172° |
| 2026-05-08 17:27 | 53.09539 | 17.99678 | 227 ft | 11 kts | 172° |
| 2026-05-08 17:27 | 53.09629 | 17.99658 | 226 ft | 0 kts | 172° |
| 2026-05-08 17:27 | 53.09626 | 17.99659 | 226 ft | 1 kts | 172° |
| 2026-05-08 17:28 | 53.09620 | 17.99660 | 226 ft | 0 kts | 172° |
| 2026-05-08 17:29 | 53.09619 | 17.99661 | 226 ft | 1 kts | 172° |
| 2026-05-08 17:29 | 53.09609 | 17.99668 | 226 ft | 4 kts | 143° |
| 2026-05-08 17:29 | 53.09620 | 17.99704 | 226 ft | 4 kts | 7° |
| 2026-05-08 17:30 | 53.09662 | 17.99654 | 226 ft | 12 kts | 341° |
| 2026-05-08 17:30 | 53.09774 | 17.99624 | 228 ft | 20 kts | 347° |
| 2026-05-08 17:30 | 53.09828 | 17.99399 | 227 ft | 28 kts | 261° |
| 2026-05-08 17:30 | 53.09796 | 17.99020 | 225 ft | 37 kts | 263° |
| 2026-05-08 17:31 | 53.09758 | 17.98544 | 225 ft | 45 kts | 263° |
| 2026-05-08 17:31 | 53.09711 | 17.97990 | 229 ft | 51 kts | 263° |
| 2026-05-08 17:31 | 53.09661 | 17.97369 | 227 ft | 56 kts | 262° |
| 2026-05-08 17:31 | 53.09607 | 17.96753 | 226 ft | 44 kts | 263° |
| 2026-05-08 17:32 | 53.09559 | 17.96289 | 226 ft | 36 kts | 251° |
| 2026-05-08 17:32 | 53.09499 | 17.95995 | 225 ft | 21 kts | 261° |
| 2026-05-08 17:32 | 53.09528 | 17.95949 | 225 ft | 6 kts | 21° |
| 2026-05-08 17:32 | 53.09535 | 17.96020 | 225 ft | 7 kts | 90° |
| 2026-05-08 17:33 | 53.09540 | 17.96096 | 226 ft | 2 kts | 82° |
| 2026-05-08 17:33 | 53.09542 | 17.96124 | 228 ft | 0 kts | 79° |
| 2026-05-08 17:34 | 53.09548 | 17.96147 | 226 ft | 7 kts | 63° |
| 2026-05-08 17:34 | 53.09552 | 17.96158 | 226 ft | 9 kts | 54° |
| 2026-05-08 17:34 | 53.09559 | 17.96171 | 227 ft | 0 kts | 48° |
| 2026-05-08 17:35 | 53.09562 | 17.96189 | 226 ft | 6 kts | 78° |
| 2026-05-08 17:35 | 53.09560 | 17.96323 | 227 ft | 20 kts | 88° |
| 2026-05-08 17:35 | 53.09616 | 17.96979 | 228 ft | 95 kts | 82° |
| 2026-05-08 17:35 | 53.09740 | 17.98416 | 229 ft | 157 kts | 77° |
| 2026-05-08 17:36 | 53.09905 | 18.00339 | 691 ft | 176 kts | 80° |
| 2026-05-08 17:36 | 53.10044 | 18.02382 | 1628 ft | 178 kts | 85° |
| 2026-05-08 17:36 | 53.09820 | 18.04488 | 2274 ft | 200 kts | 116° |
| 2026-05-08 17:36 | 53.08732 | 18.06047 | 2799 ft | 220 kts | 160° |
| 2026-05-08 17:37 | 53.07136 | 18.06022 | 3257 ft | 248 kts | 201° |
| 2026-05-08 17:37 | 53.05770 | 18.04227 | 3920 ft | 260 kts | 238° |
| 2026-05-08 17:37 | 53.05231 | 18.01356 | 4723 ft | 265 kts | 270° |
| 2026-05-08 17:37 | 53.05327 | 17.98291 | 5657 ft | 269 kts | 274° |
| 2026-05-08 17:38 | 53.05286 | 17.95200 | 6652 ft | 269 kts | 265° |
| 2026-05-08 17:38 | 53.05043 | 17.92077 | 7473 ft | 274 kts | 261° |
| 2026-05-08 17:38 | 53.04696 | 17.88957 | 8367 ft | 276 kts | 259° |
| 2026-05-08 17:38 | 53.04313 | 17.85800 | 9190 ft | 279 kts | 259° |
| 2026-05-08 17:39 | 53.03916 | 17.82603 | 10007 ft | 285 kts | 259° |
| 2026-05-08 17:39 | 53.03517 | 17.79370 | 10751 ft | 289 kts | 259° |
| 2026-05-08 17:39 | 53.03117 | 17.76025 | 11211 ft | 304 kts | 259° |
| 2026-05-08 17:39 | 53.02687 | 17.72470 | 11527 ft | 324 kts | 258° |
| 2026-05-08 17:40 | 53.01901 | 17.68920 | 11805 ft | 342 kts | 236° |
| 2026-05-08 17:40 | 53.00212 | 17.66120 | 12418 ft | 349 kts | 216° |
| 2026-05-08 17:40 | 52.98240 | 17.63711 | 13024 ft | 355 kts | 221° |
| 2026-05-08 17:40 | 52.96340 | 17.61065 | 13777 ft | 357 kts | 221° |
| 2026-05-08 17:41 | 52.94419 | 17.58422 | 14414 ft | 361 kts | 221° |
| 2026-05-08 17:41 | 52.92478 | 17.55764 | 15034 ft | 363 kts | 221° |
| 2026-05-08 17:41 | 52.90514 | 17.53084 | 15651 ft | 366 kts | 221° |
| 2026-05-08 17:41 | 52.88537 | 17.50391 | 16247 ft | 369 kts | 221° |
| 2026-05-08 17:42 | 52.86547 | 17.47683 | 16839 ft | 372 kts | 221° |
| 2026-05-08 17:42 | 52.84536 | 17.44952 | 17418 ft | 375 kts | 221° |
| 2026-05-08 17:42 | 52.82540 | 17.42244 | 17987 ft | 378 kts | 221° |
| 2026-05-08 17:42 | 52.80498 | 17.39477 | 18534 ft | 381 kts | 221° |
| 2026-05-08 17:43 | 52.78434 | 17.36683 | 19027 ft | 383 kts | 221° |
| 2026-05-08 17:43 | 52.76366 | 17.33889 | 19527 ft | 386 kts | 221° |
| 2026-05-08 17:43 | 52.74277 | 17.31066 | 20011 ft | 388 kts | 221° |
| 2026-05-08 17:43 | 52.72176 | 17.28235 | 20499 ft | 390 kts | 221° |
| 2026-05-08 17:44 | 52.70067 | 17.25395 | 21007 ft | 392 kts | 221° |
| 2026-05-08 17:44 | 52.67946 | 17.22545 | 21462 ft | 395 kts | 221° |
| 2026-05-08 17:44 | 52.65810 | 17.19676 | 21926 ft | 397 kts | 221° |
| 2026-05-08 17:44 | 52.63659 | 17.16792 | 22386 ft | 399 kts | 221° |
| 2026-05-08 17:45 | 52.61499 | 17.13898 | 22844 ft | 402 kts | 221° |
| 2026-05-08 17:45 | 52.59352 | 17.11027 | 23281 ft | 404 kts | 221° |
| 2026-05-08 17:45 | 52.57162 | 17.08102 | 23713 ft | 407 kts | 221° |
| 2026-05-08 17:45 | 52.54961 | 17.05166 | 24075 ft | 409 kts | 221° |
| 2026-05-08 17:46 | 52.52744 | 17.02212 | 24441 ft | 411 kts | 221° |
| 2026-05-08 17:46 | 52.50518 | 16.99248 | 24833 ft | 412 kts | 220° |
| 2026-05-08 17:46 | 52.48294 | 16.96296 | 25287 ft | 411 kts | 220° |
| 2026-05-08 17:46 | 52.46061 | 16.93333 | 25612 ft | 414 kts | 220° |
| 2026-05-08 17:47 | 52.43817 | 16.90359 | 25962 ft | 416 kts | 220° |
| 2026-05-08 17:47 | 52.41560 | 16.87374 | 26297 ft | 417 kts | 220° |
| 2026-05-08 17:47 | 52.39293 | 16.84378 | 26634 ft | 419 kts | 220° |
| 2026-05-08 17:47 | 52.37788 | 16.82391 | 26854 ft | 420 kts | 220° |
| 2026-05-08 17:48 | 52.34732 | 16.78364 | 27284 ft | 423 kts | 220° |
| 2026-05-08 17:48 | 52.32431 | 16.75336 | 27600 ft | 425 kts | 220° |
| 2026-05-08 17:48 | 52.30122 | 16.72302 | 27920 ft | 426 kts | 220° |
| 2026-05-08 17:48 | 52.27834 | 16.69299 | 28233 ft | 428 kts | 220° |
| 2026-05-08 17:49 | 52.25506 | 16.66250 | 28524 ft | 430 kts | 220° |
| 2026-05-08 17:49 | 52.23170 | 16.63193 | 28811 ft | 432 kts | 220° |
| 2026-05-08 17:49 | 52.20821 | 16.60124 | 29102 ft | 433 kts | 220° |
| 2026-05-08 17:49 | 52.18464 | 16.57047 | 29387 ft | 435 kts | 220° |
| 2026-05-08 17:50 | 52.16092 | 16.53957 | 29653 ft | 437 kts | 220° |
| 2026-05-08 17:50 | 52.13711 | 16.50858 | 29937 ft | 439 kts | 220° |
| 2026-05-08 17:50 | 52.11335 | 16.47773 | 30309 ft | 438 kts | 220° |
| 2026-05-08 17:50 | 52.08953 | 16.44684 | 30626 ft | 437 kts | 220° |
| 2026-05-08 17:51 | 52.06610 | 16.41650 | 30901 ft | 437 kts | 220° |
| 2026-05-08 17:51 | 52.04227 | 16.38568 | 31181 ft | 437 kts | 220° |
| 2026-05-08 17:51 | 52.01851 | 16.35499 | 31466 ft | 436 kts | 220° |
| 2026-05-08 17:51 | 51.99474 | 16.32434 | 31753 ft | 436 kts | 220° |
| 2026-05-08 17:52 | 51.97098 | 16.29373 | 32022 ft | 436 kts | 220° |
| 2026-05-08 17:52 | 51.94719 | 16.26313 | 32179 ft | 437 kts | 220° |
| 2026-05-08 17:53 | 51.87599 | 16.17179 | 32172 ft | 435 kts | 220° |
| 2026-05-08 17:53 | 51.82845 | 16.11099 | 32164 ft | 435 kts | 220° |
| 2026-05-08 17:54 | 51.78098 | 16.05046 | 32162 ft | 435 kts | 220° |
| 2026-05-08 17:54 | 51.73368 | 15.99031 | 32163 ft | 435 kts | 220° |
| 2026-05-08 17:55 | 51.68604 | 15.92991 | 32161 ft | 436 kts | 220° |
| 2026-05-08 17:55 | 51.63828 | 15.86950 | 32162 ft | 436 kts | 220° |
| 2026-05-08 17:56 | 51.59055 | 15.80930 | 32158 ft | 436 kts | 220° |
| 2026-05-08 17:56 | 51.54273 | 15.74917 | 32157 ft | 436 kts | 220° |
| 2026-05-08 17:57 | 51.49483 | 15.68908 | 32156 ft | 436 kts | 220° |
| 2026-05-08 17:57 | 51.44716 | 15.62946 | 32158 ft | 436 kts | 220° |
| 2026-05-08 17:58 | 51.39920 | 15.56963 | 32154 ft | 437 kts | 220° |
| 2026-05-08 17:58 | 51.35125 | 15.50998 | 32154 ft | 437 kts | 220° |
| 2026-05-08 17:59 | 51.30320 | 15.45036 | 32156 ft | 437 kts | 220° |
| 2026-05-08 17:59 | 51.25513 | 15.39088 | 32156 ft | 437 kts | 220° |
| 2026-05-08 18:00 | 51.20704 | 15.33155 | 32155 ft | 437 kts | 220° |
| 2026-05-08 18:00 | 51.13483 | 15.24275 | 32149 ft | 437 kts | 220° |
| 2026-05-08 18:01 | 51.08698 | 15.18411 | 32150 ft | 437 kts | 220° |
| 2026-05-08 18:01 | 51.03878 | 15.12520 | 32141 ft | 437 kts | 220° |
| 2026-05-08 18:02 | 51.00009 | 15.07295 | 32156 ft | 434 kts | 227° |
| 2026-05-08 18:02 | 50.95008 | 14.99445 | 32152 ft | 435 kts | 226° |
| 2026-05-08 18:03 | 50.90705 | 14.92706 | 32149 ft | 435 kts | 226° |
| 2026-05-08 18:03 | 50.86362 | 14.86031 | 32138 ft | 436 kts | 220° |
| 2026-05-08 18:04 | 50.81283 | 14.80802 | 32133 ft | 438 kts | 216° |
| 2026-05-08 18:04 | 50.76163 | 14.75553 | 32134 ft | 439 kts | 215° |
| 2026-05-08 18:05 | 50.71033 | 14.70335 | 32145 ft | 438 kts | 215° |
| 2026-05-08 18:05 | 50.65895 | 14.65125 | 32143 ft | 438 kts | 215° |
| 2026-05-08 18:06 | 50.60768 | 14.59940 | 32148 ft | 438 kts | 214° |
| 2026-05-08 18:06 | 50.55659 | 14.54786 | 32140 ft | 438 kts | 214° |
| 2026-05-08 18:07 | 50.50525 | 14.49622 | 32141 ft | 438 kts | 214° |
| 2026-05-08 18:07 | 50.45354 | 14.44433 | 32142 ft | 438 kts | 214° |
| 2026-05-08 18:08 | 50.40243 | 14.39318 | 32137 ft | 438 kts | 214° |
| 2026-05-08 18:08 | 50.35106 | 14.34191 | 32137 ft | 438 kts | 214° |
| 2026-05-08 18:09 | 50.29966 | 14.29073 | 32137 ft | 438 kts | 214° |
| 2026-05-08 18:09 | 50.24822 | 14.23965 | 32129 ft | 438 kts | 214° |
| 2026-05-08 18:10 | 50.19683 | 14.18875 | 32129 ft | 437 kts | 214° |
| 2026-05-08 18:10 | 50.14547 | 14.13801 | 32131 ft | 437 kts | 214° |
| 2026-05-08 18:11 | 50.09408 | 14.08737 | 32122 ft | 437 kts | 214° |
| 2026-05-08 18:11 | 50.06930 | 14.06300 | 32132 ft | 436 kts | 214° |
| 2026-05-08 18:12 | 50.02685 | 14.02133 | 32129 ft | 436 kts | 214° |
| 2026-05-08 18:12 | 49.97559 | 13.97111 | 32132 ft | 435 kts | 214° |
| 2026-05-08 18:13 | 49.92431 | 13.92101 | 32136 ft | 434 kts | 214° |
| 2026-05-08 18:13 | 49.87343 | 13.87143 | 32137 ft | 433 kts | 214° |
| 2026-05-08 18:14 | 49.82238 | 13.82181 | 32134 ft | 432 kts | 214° |
| 2026-05-08 18:14 | 49.77140 | 13.77237 | 32125 ft | 432 kts | 214° |
| 2026-05-08 18:15 | 49.72050 | 13.72314 | 32118 ft | 430 kts | 214° |
| 2026-05-08 18:15 | 49.67010 | 13.67452 | 32113 ft | 429 kts | 214° |
| 2026-05-08 18:16 | 49.61956 | 13.62587 | 32113 ft | 427 kts | 214° |
| 2026-05-08 18:16 | 49.56915 | 13.57748 | 32111 ft | 426 kts | 214° |
| 2026-05-08 18:17 | 49.51899 | 13.52944 | 32113 ft | 424 kts | 214° |
| 2026-05-08 18:17 | 49.46895 | 13.48164 | 32107 ft | 423 kts | 214° |
| 2026-05-08 18:18 | 49.41881 | 13.43386 | 32110 ft | 422 kts | 215° |
| 2026-05-08 18:18 | 49.36902 | 13.38651 | 32103 ft | 420 kts | 215° |
| 2026-05-08 18:19 | 49.31968 | 13.33969 | 32100 ft | 419 kts | 215° |
| 2026-05-08 18:19 | 49.27008 | 13.29272 | 32097 ft | 418 kts | 215° |
| 2026-05-08 18:20 | 49.21907 | 13.24969 | 32096 ft | 420 kts | 209° |
| 2026-05-08 18:20 | 49.16670 | 13.21004 | 32064 ft | 419 kts | 210° |
| 2026-05-08 18:21 | 49.11455 | 13.17035 | 32089 ft | 419 kts | 209° |
| 2026-05-08 18:21 | 49.07102 | 13.13800 | 32088 ft | 418 kts | 210° |
| 2026-05-08 18:22 | 49.01872 | 13.09910 | 32080 ft | 418 kts | 209° |
| 2026-05-08 18:22 | 48.96646 | 13.06030 | 32075 ft | 417 kts | 209° |
| 2026-05-08 18:23 | 48.91419 | 13.02158 | 32082 ft | 417 kts | 209° |
| 2026-05-08 18:23 | 48.86205 | 12.98305 | 32076 ft | 416 kts | 209° |
| 2026-05-08 18:24 | 48.80980 | 12.94453 | 32072 ft | 416 kts | 209° |
| 2026-05-08 18:24 | 48.75802 | 12.90643 | 32074 ft | 416 kts | 209° |
| 2026-05-08 18:25 | 48.71150 | 12.85702 | 32093 ft | 409 kts | 226° |
| 2026-05-08 18:25 | 48.66903 | 12.79919 | 32087 ft | 411 kts | 224° |
| 2026-05-08 18:26 | 48.62667 | 12.74099 | 32072 ft | 411 kts | 224° |
| 2026-05-08 18:26 | 48.58450 | 12.68257 | 32067 ft | 411 kts | 224° |
| 2026-05-08 18:27 | 48.54942 | 12.63390 | 32070 ft | 411 kts | 224° |
| 2026-05-08 18:27 | 48.50017 | 12.56575 | 32067 ft | 411 kts | 224° |
| 2026-05-08 18:28 | 48.45792 | 12.50745 | 32065 ft | 411 kts | 224° |
| 2026-05-08 18:28 | 48.41474 | 12.45104 | 32067 ft | 412 kts | 221° |
| 2026-05-08 18:29 | 48.37129 | 12.39562 | 32063 ft | 412 kts | 222° |
| 2026-05-08 18:29 | 48.32757 | 12.33982 | 32059 ft | 412 kts | 222° |
| 2026-05-08 18:30 | 48.28379 | 12.28405 | 32061 ft | 413 kts | 221° |
| 2026-05-08 18:30 | 48.24003 | 12.22845 | 32061 ft | 413 kts | 221° |
| 2026-05-08 18:31 | 48.19608 | 12.17273 | 32059 ft | 413 kts | 221° |
| 2026-05-08 18:31 | 48.15262 | 12.11776 | 32056 ft | 407 kts | 221° |
| 2026-05-08 18:32 | 48.10934 | 12.06314 | 32056 ft | 407 kts | 221° |
| 2026-05-08 18:32 | 48.06605 | 12.00863 | 32050 ft | 407 kts | 221° |
| 2026-05-08 18:33 | 48.02261 | 11.95407 | 32040 ft | 408 kts | 221° |
| 2026-05-08 18:33 | 47.97910 | 11.89954 | 32038 ft | 408 kts | 221° |
| 2026-05-08 18:34 | 47.93586 | 11.84544 | 32033 ft | 408 kts | 221° |
| 2026-05-08 18:34 | 47.88692 | 11.80362 | 32025 ft | 414 kts | 195° |
| 2026-05-08 18:35 | 47.82885 | 11.79682 | 32025 ft | 422 kts | 187° |
| 2026-05-08 18:35 | 47.77017 | 11.79275 | 32028 ft | 422 kts | 186° |
| 2026-05-08 18:36 | 47.71143 | 11.79043 | 32024 ft | 425 kts | 179° |
| 2026-05-08 18:36 | 47.68235 | 11.80020 | 32014 ft | 433 kts | 163° |
| 2026-05-08 18:36 | 47.65464 | 11.81615 | 32027 ft | 433 kts | 165° |
| 2026-05-08 18:37 | 47.59756 | 11.84724 | 32025 ft | 437 kts | 164° |
| 2026-05-08 18:37 | 47.54075 | 11.87887 | 32021 ft | 435 kts | 164° |
| 2026-05-08 18:38 | 47.51187 | 11.89068 | 31997 ft | 427 kts | 178° |
| 2026-05-08 18:38 | 47.48262 | 11.89021 | 32044 ft | 417 kts | 192° |
| 2026-05-08 18:38 | 47.45477 | 11.87876 | 32029 ft | 414 kts | 206° |
| 2026-05-08 18:38 | 47.43022 | 11.85797 | 32020 ft | 411 kts | 219° |
| 2026-05-08 18:39 | 47.40918 | 11.82876 | 32023 ft | 411 kts | 232° |
| 2026-05-08 18:39 | 47.39355 | 11.79361 | 32036 ft | 411 kts | 240° |
| 2026-05-08 18:39 | 47.36744 | 11.71880 | 32022 ft | 413 kts | 244° |